Time;durP1;ratioP1;P1;durP2;ratioP2;P2;SDS_P1;SDS_P2;PMS_P1;PMS_P2;Temp;Humidity;BMP_temperature;BMP_pressure;BME280_temperature;BME280_humidity;BME280_pressure;Samples;Min_cycle;Max_cycle;Signal;HPM_P1;HPM_P2
2022/10/16 00:00:43;;;;;;;;;2.00;2.00;;;;;15.36;100.00;100281.19;4958592;28;45376;-92
2022/10/16 00:03:11;;;;;;;;;1.75;1.50;;;;;15.53;100.00;100316.84;4973621;28;45471;-91
2022/10/16 00:05:43;;;;;;;;;2.00;2.00;;;;;15.30;99.32;100294.75;4972535;28;47047;-92
2022/10/16 00:08:10;;;;;;;;;2.00;2.00;;;;;15.62;100.00;100351.94;4944999;28;45356;-92
2022/10/16 00:10:36;;;;;;;;;1.25;1.25;;;;;15.33;99.37;100307.09;4938123;28;45325;-91
2022/10/16 00:13:02;;;;;;;;;1.75;1.75;;;;;15.45;100.00;100323.38;4937461;28;45245;-92
2022/10/16 00:15:27;;;;;;;;;1.00;1.00;;;;;15.47;99.97;100331.28;4954402;28;47989;-92
2022/10/16 00:17:52;;;;;;;;;0.50;0.50;;;;;15.53;100.00;100356.81;4956122;28;45418;-91
2022/10/16 00:20:18;;;;;;;;;2.00;1.00;;;;;15.48;100.00;100348.16;4939959;28;45229;-92
2022/10/16 00:22:43;;;;;;;;;2.25;2.25;;;;;15.51;100.00;100364.84;4972192;28;45286;-91
2022/10/16 00:25:09;;;;;;;;;2.00;2.00;;;;;15.38;100.00;100343.25;4956731;28;47526;-91
2022/10/16 00:27:34;;;;;;;;;2.25;1.75;;;;;15.32;100.00;100326.66;4956797;28;45357;-91
2022/10/16 00:29:59;;;;;;;;;2.00;2.00;;;;;15.41;100.00;100353.75;4958430;28;45385;-91
2022/10/16 00:32:25;;;;;;;;;2.00;2.00;;;;;15.40;100.00;100336.03;4957393;28;45276;-90
2022/10/16 00:34:50;;;;;;;;;1.00;1.00;;;;;15.37;100.00;100346.81;4961891;28;46956;-92
2022/10/16 00:37:16;;;;;;;;;2.00;2.00;;;;;15.41;100.00;100359.09;4966471;28;45338;-92
2022/10/16 00:39:42;;;;;;;;;2.00;2.00;;;;;15.40;100.00;100365.34;4966926;28;45446;-91
2022/10/16 00:42:14;;;;;;;;;2.00;2.00;;;;;15.35;100.00;100355.81;4958501;28;45182;-89
2022/10/16 00:44:55;;;;;;;;;2.00;2.00;;;;;15.43;100.00;100375.84;4956917;28;47091;-91
2022/10/16 00:47:21;;;;;;;;;2.75;2.50;;;;;15.45;100.00;100378.44;4942592;28;45264;-91
2022/10/16 00:49:48;;;;;;;;;1.00;1.00;;;;;15.38;100.00;100369.88;4940787;28;45315;-90
2022/10/16 00:56:02;;;;;;;;;3.00;3.00;;;;;15.48;100.00;100380.13;4961665;28;45382;-92
2022/10/16 00:58:27;;;;;;;;;2.50;2.50;;;;;15.39;100.00;100360.94;4945480;28;45283;-91
2022/10/16 01:00:52;;;;;;;;;2.00;2.00;;;;;15.44;100.00;100374.03;4941088;28;45560;-90
2022/10/16 01:03:24;;;;;;;;;6.00;4.00;;;;;15.35;100.00;100369.13;4957272;28;45267;-92
2022/10/16 01:05:59;;;;;;;;;3.50;3.50;;;;;15.42;100.00;100366.13;4940752;28;47625;-92
2022/10/16 01:08:38;;;;;;;;;4.25;3.25;;;;;15.36;100.00;100363.72;4960136;28;45464;-91
2022/10/16 01:11:17;;;;;;;;;2.00;2.00;;;;;15.25;100.00;100353.53;4963042;28;45448;-91
2022/10/16 01:13:49;;;;;;;;;4.75;3.00;;;;;15.27;100.00;100361.47;4972374;28;44919;-91
2022/10/16 01:16:50;;;;;;;;;3.00;3.00;;;;;15.29;100.00;100378.25;4967204;28;47443;-92
2022/10/16 01:19:26;;;;;;;;;2.00;2.00;;;;;15.25;100.00;100376.66;4965428;28;45481;-91
2022/10/16 01:21:53;;;;;;;;;1.75;1.25;;;;;15.24;100.00;100374.91;4964037;28;45507;-91
2022/10/16 01:24:30;;;;;;;;;4.00;2.00;;;;;15.33;100.00;100390.47;4960456;28;45515;-91
2022/10/16 01:27:25;;;;;;;;;0.00;0.00;;;;;15.33;100.00;100387.81;4959499;28;48247;-92
2022/10/16 01:29:56;;;;;;;;;3.00;3.00;;;;;15.36;100.00;100377.03;4960911;28;45822;-92
2022/10/16 01:32:45;;;;;;;;;3.25;3.00;;;;;15.31;100.00;100379.03;4960548;28;45341;-92
2022/10/16 01:35:31;;;;;;;;;3.00;2.00;;;;;15.42;100.00;100392.75;4966210;28;45210;-91
2022/10/16 01:38:09;;;;;;;;;3.50;2.00;;;;;15.40;100.00;100383.97;4961175;28;47309;-92
2022/10/16 01:40:39;;;;;;;;;0.25;0.00;;;;;15.45;100.00;100392.63;4960077;28;45619;-91
2022/10/16 01:43:12;;;;;;;;;1.00;1.00;;;;;15.38;100.00;100383.19;4975788;28;45263;-90
2022/10/16 01:45:40;;;;;;;;;1.75;1.75;;;;;15.42;100.00;100383.91;4959636;28;45246;-90
2022/10/16 01:48:07;;;;;;;;;0.75;0.75;;;;;15.41;100.00;100372.41;4961587;28;45433;-90
2022/10/16 01:50:39;;;;;;;;;0.25;0.25;;;;;15.44;99.42;100382.03;4959053;28;45363;-90
2022/10/16 01:53:08;;;;;;;;;0.75;0.75;;;;;15.39;98.97;100382.22;4958211;28;45681;-90
2022/10/16 01:55:38;;;;;;;;;1.50;1.50;;;;;15.36;100.00;100387.69;4958236;28;45341;-91
2022/10/16 01:58:07;;;;;;;;;2.00;1.00;;;;;15.38;99.57;100382.28;4959529;28;46055;-90
2022/10/16 02:00:34;;;;;;;;;1.00;1.00;;;;;15.37;99.46;100384.09;4958743;28;45328;-90
2022/10/16 02:03:02;;;;;;;;;1.00;0.00;;;;;15.29;100.00;100375.59;4957411;28;45459;-90
2022/10/16 02:05:50;;;;;;;;;2.00;1.00;;;;;15.29;100.00;100375.59;4955369;28;45203;-90
2022/10/16 02:08:15;;;;;;;;;0.25;0.25;;;;;15.27;100.00;100378.31;4954464;28;47743;-90
2022/10/16 02:10:41;;;;;;;;;1.25;1.25;;;;;15.27;100.00;100378.31;4943870;28;45424;-90
2022/10/16 02:13:11;;;;;;;;;2.00;2.00;;;;;15.33;99.20;100377.16;4958069;28;45462;-90
2022/10/16 02:15:37;;;;;;;;;1.00;1.00;;;;;15.29;99.33;100380.91;4962516;28;45416;-89
2022/10/16 02:18:05;;;;;;;;;1.00;1.00;;;;;15.34;100.00;56698.75;4962846;28;46877;-91
2022/10/16 02:20:37;;;;;;;;;1.00;1.00;;;;;-145.22;100.00;56698.75;4994715;28;30712;-90
2022/10/16 02:23:03;;;;;;;;;1.00;1.00;;;;;-145.22;100.00;56698.75;4992113;28;43724;-90
2022/10/16 02:25:37;;;;;;;;;0.50;0.00;;;;;-145.22;100.00;56698.75;4990925;28;27859;-90
2022/10/16 02:28:17;;;;;;;;;2.00;1.00;;;;;-145.22;100.00;56698.75;4991999;28;11686;-91
2022/10/16 02:30:49;;;;;;;;;0.25;0.25;;;;;-145.22;100.00;56698.75;4985828;28;10265;-89
2022/10/16 02:33:16;;;;;;;;;1.00;1.00;;;;;-145.22;100.00;56698.75;4974235;28;10549;-90
2022/10/16 02:35:45;;;;;;;;;0.00;0.00;;;;;-145.22;100.00;56698.75;4995698;28;10654;-90
2022/10/16 02:38:12;;;;;;;;;1.00;1.00;;;;;-145.22;100.00;56698.75;4993609;28;15252;-90
2022/10/16 02:40:41;;;;;;;;;1.00;0.00;;;;;15.54;96.10;100394.03;4958625;28;45355;-91
2022/10/16 02:43:06;;;;;;;;;2.00;2.00;;;;;15.57;96.03;100395.69;4977440;28;45277;-92
2022/10/16 02:45:32;;;;;;;;;0.00;0.00;;;;;15.57;96.41;100406.34;4975698;28;45298;-92
2022/10/16 02:47:57;;;;;;;;;1.00;1.00;;;;;15.56;96.04;100399.28;4975354;28;80417;-95
2022/10/16 02:50:24;;;;;;;;;0.00;0.00;;;;;-145.22;100.00;56698.75;4976598;28;251197;-92
2022/10/16 02:52:49;;;;;;;;;0.00;0.00;;;;;-145.22;100.00;56698.75;4980307;28;135160;-92
2022/10/16 02:55:15;;;;;;;;;1.50;0.00;;;;;-145.22;100.00;56698.75;4977536;28;251206;-91
2022/10/16 02:57:40;;;;;;;;;0.00;0.00;;;;;-145.22;100.00;56698.75;4993464;28;8839;-92
2022/10/16 03:00:08;;;;;;;;;0.00;0.00;;;;;-145.22;100.00;56698.75;4982655;28;53993;-91
2022/10/16 03:02:34;;;;;;;;;2.00;1.00;;;;;-145.22;100.00;56698.75;4987382;28;52002;-91
2022/10/16 03:04:59;;;;;;;;;0.00;0.00;;;;;15.56;96.42;100399.28;4960207;28;70435;-93
2022/10/16 03:07:24;;;;;;;;;2.00;0.75;;;;;-145.22;100.00;56698.75;4970697;28;76536;-91
2022/10/16 03:09:52;;;;;;;;;1.00;0.00;;;;;-145.22;100.00;56698.75;4966200;28;156424;-91
2022/10/16 03:12:18;;;;;;;;;0.00;0.00;;;;;15.34;0.00;56698.75;4681582;28;1761071;-92
2022/10/16 03:14:44;;;;;;;;;1.00;1.00;;;;;-145.22;100.00;56698.75;4296974;28;4759871;-92
2022/10/16 03:17:09;;;;;;;;;1.00;1.00;;;;;15.15;95.25;100421.41;4961559;28;351928;-92
2022/10/16 03:19:35;;;;;;;;;0.25;0.25;;;;;15.16;96.49;100424.94;4958306;28;45418;-92
2022/10/16 03:22:01;;;;;;;;;0.50;0.25;;;;;15.08;95.70;100425.28;4950679;28;45433;-92
2022/10/16 03:24:26;;;;;;;;;0.00;0.00;;;;;15.03;96.62;100419.25;4940627;28;45719;-91
2022/10/16 03:26:52;;;;;;;;;0.00;0.00;;;;;14.94;96.97;100420.50;4986580;28;48209;-89
2022/10/16 03:29:17;;;;;;;;;1.00;0.00;;;;;14.96;97.65;100426.63;4975826;28;45366;-90
2022/10/16 03:31:42;;;;;;;;;0.00;0.00;;;;;14.89;95.53;100425.13;4976680;28;45290;-89
2022/10/16 03:34:08;;;;;;;;;0.75;0.75;;;;;14.88;95.54;100408.31;4981707;28;45286;-89
2022/10/16 03:36:33;;;;;;;;;1.00;1.00;;;;;14.86;96.80;100388.00;4964029;28;47455;-89
2022/10/16 03:38:58;;;;;;;;;0.00;0.00;;;;;14.89;96.08;100388.78;4940435;28;45528;-89
2022/10/16 03:41:24;;;;;;;;;0.75;0.75;;;;;14.89;96.32;100379.91;4939043;28;45402;-91
2022/10/16 03:43:49;;;;;;;;;0.00;0.00;;;;;14.88;96.36;100400.34;4979662;28;44840;-91
2022/10/16 03:46:14;;;;;;;;;0.25;0.00;;;;;14.85;96.64;100402.22;4947191;28;47335;-92
2022/10/16 03:48:40;;;;;;;;;0.75;0.75;;;;;14.82;96.48;100399.69;4940718;28;45464;-92
2022/10/16 03:51:05;;;;;;;;;0.25;0.25;;;;;14.83;96.97;100406.75;4958271;28;45726;-92
2022/10/16 03:53:31;;;;;;;;;0.00;0.00;;;;;14.83;97.10;100406.75;4976797;28;44897;-91
2022/10/16 03:55:56;;;;;;;;;0.00;0.00;;;;;14.88;96.21;100402.13;4962074;28;47949;-92
2022/10/16 03:58:22;;;;;;;;;1.50;0.00;;;;;14.88;95.75;100412.78;4958905;28;45346;-92
2022/10/16 04:00:48;;;;;;;;;0.00;0.00;;;;;14.90;95.73;100421.56;4957057;28;45656;-92
2022/10/16 04:03:14;;;;;;;;;0.00;0.00;;;;;14.90;96.02;100413.56;4957035;28;45409;-90
2022/10/16 04:05:39;;;;;;;;;0.00;0.00;;;;;14.94;95.51;100412.53;4956428;28;47234;-90
2022/10/16 04:08:05;;;;;;;;;0.00;0.00;;;;;15.00;96.73;100403.41;4940402;28;45512;-90
2022/10/16 04:10:30;;;;;;;;;0.00;0.00;;;;;15.02;95.33;100405.09;4947323;28;44835;-90
2022/10/16 04:12:56;;;;;;;;;0.00;0.00;;;;;14.98;95.00;100407.94;4946219;28;45247;-90
2022/10/16 04:15:25;;;;;;;;;0.00;0.00;;;;;14.99;95.05;100407.88;4941005;28;47129;-90
2022/10/16 04:17:51;;;;;;;;;0.00;0.00;;;;;15.09;95.19;100422.53;4941020;28;45480;-90
2022/10/16 04:20:17;;;;;;;;;0.00;0.00;;;;;15.10;95.31;100423.41;4940675;28;45485;-91
2022/10/16 04:22:42;;;;;;;;;0.50;0.50;;;;;15.12;95.29;100410.03;4941169;28;45334;-91
2022/10/16 04:25:11;;;;;;;;;0.00;0.00;;;;;15.13;95.44;100407.31;4962423;28;47763;-94
2022/10/16 04:27:36;;;;;;;;;0.75;0.75;;;;;15.20;96.02;100414.13;4965456;28;45531;-94
2022/10/16 04:30:02;;;;;;;;;0.00;0.00;;;;;15.16;95.18;100406.31;4971076;28;44763;-95
2022/10/16 04:35:58;;;;;;;;;0.25;0.00;;;;;15.05;93.97;100383.66;4939598;28;45156;-94
2022/10/16 04:38:24;;;;;;;;;0.00;0.00;;;;;-145.22;100.00;56698.75;4956852;28;45334;-95
2022/10/16 04:48:24;;;;;;;;;0.00;0.00;;;;;15.38;93.90;100465.72;4979296;28;15040;-94
2022/10/16 04:51:22;;;;;;;;;0.00;0.00;;;;;-145.22;100.00;56698.75;4982887;28;13398;-93
2022/10/16 04:53:48;;;;;;;;;1.25;0.75;;;;;-145.22;100.00;56698.75;4992734;28;10286;-93
2022/10/16 04:56:14;;;;;;;;;0.00;0.00;;;;;-145.22;100.00;56698.75;4992632;28;10399;-94
2022/10/16 04:58:40;;;;;;;;;1.00;1.00;;;;;-145.22;100.00;56698.75;4999340;28;36632;-94
2022/10/16 05:01:05;;;;;;;;;0.00;0.00;;;;;-145.22;100.00;56698.75;4971464;28;45375;-94
2022/10/16 05:03:30;;;;;;;;;0.00;0.00;;;;;-145.22;100.00;56698.75;4996077;28;8984;-93
2022/10/16 05:05:56;;;;;;;;;0.00;0.00;;;;;15.16;94.75;100489.69;4968684;28;45231;-94
2022/10/16 05:08:21;;;;;;;;;0.00;0.00;;;;;15.12;94.43;100479.22;4986782;28;46964;-95
2022/10/16 05:10:47;;;;;;;;;0.00;0.00;;;;;-145.22;100.00;56698.75;4980602;28;45392;-93
2022/10/16 05:13:12;;;;;;;;;0.50;0.50;;;;;-145.22;100.00;56698.75;5013351;28;8834;-93
2022/10/16 05:15:39;;;;;;;;;0.00;0.00;;;;;-145.22;100.00;56698.75;5006691;28;8814;-94
2022/10/16 05:18:04;;;;;;;;;0.00;0.00;;;;;15.10;94.53;100472.16;4969302;28;45192;-92
2022/10/16 05:20:30;;;;;;;;;0.00;0.00;;;;;15.09;94.78;100485.53;4963590;28;45230;-91
2022/10/16 05:22:55;;;;;;;;;0.50;0.50;;;;;15.09;94.87;100504.16;4977973;28;45183;-92
2022/10/16 05:25:21;;;;;;;;;0.00;0.00;;;;;14.93;93.64;100490.63;4960940;28;45305;-94
2022/10/16 05:27:49;;;;;;;;;1.00;0.00;;;;;15.02;94.64;100503.56;4962932;28;47953;-94
2022/10/16 05:30:16;;;;;;;;;1.00;1.00;;;;;14.98;94.48;100509.91;4967930;28;45314;-95
2022/10/16 05:32:46;;;;;;;;;0.75;0.75;;;;;15.09;95.65;100529.00;4966063;28;45306;-94
2022/10/16 05:35:12;;;;;;;;;0.00;0.00;;;;;-145.22;100.00;56698.75;4986519;28;45548;-95
2022/10/16 05:37:37;;;;;;;;;0.00;0.00;;;;;-145.22;100.00;56698.75;5008101;28;11514;-94
2022/10/16 05:40:04;;;;;;;;;0.00;0.00;;;;;-145.22;100.00;56698.75;4999862;28;8866;-94
2022/10/16 05:42:29;;;;;;;;;1.00;1.00;;;;;-145.22;100.00;56698.75;5014759;28;8803;-93
2022/10/16 05:44:55;;;;;;;;;0.00;0.00;;;;;-145.22;100.00;56698.75;4980557;28;10517;-95
2022/10/16 05:47:20;;;;;;;;;0.00;0.00;;;;;-145.22;100.00;56698.75;4997493;28;8959;-95
2022/10/16 05:49:46;;;;;;;;;0.00;0.00;;;;;-145.22;100.00;56698.75;4996223;28;8837;-96
2022/10/16 05:52:14;;;;;;;;;0.00;0.00;;;;;-145.22;100.00;56698.75;4996140;28;8895;-93
2022/10/16 05:54:39;;;;;;;;;0.00;0.00;;;;;-145.22;100.00;56698.75;5011628;28;8778;-95
2022/10/16 05:57:05;;;;;;;;;0.00;0.00;;;;;-145.22;100.00;56698.75;4995630;28;10358;-94
2022/10/16 05:59:31;;;;;;;;;0.00;0.00;;;;;-145.22;100.00;56698.75;5011358;28;8847;-93
2022/10/16 06:01:57;;;;;;;;;0.75;0.00;;;;;15.18;94.07;100517.09;4979086;28;45242;-95
2022/10/16 06:04:22;;;;;;;;;3.00;0.00;;;;;15.19;94.56;100518.84;4959784;28;45223;-94
2022/10/16 06:06:47;;;;;;;;;1.00;1.00;;;;;15.24;94.41;100526.66;4960148;28;47914;-94
2022/10/16 06:09:13;;;;;;;;;0.00;0.00;;;;;15.15;94.89;100521.69;4960648;28;45306;-94
2022/10/16 06:11:38;;;;;;;;;0.00;0.00;;;;;15.11;94.52;100518.31;4959846;28;45405;-94
2022/10/16 06:14:06;;;;;;;;;0.25;0.25;;;;;14.99;94.62;100511.66;4959242;28;45443;-94
2022/10/16 06:16:34;;;;;;;;;0.00;0.00;;;;;15.00;94.85;100513.41;4960887;28;46272;-95
2022/10/16 06:18:59;;;;;;;;;0.00;0.00;;;;;14.99;95.78;100527.63;4960748;28;45583;-94
2022/10/16 06:21:27;;;;;;;;;0.00;0.00;;;;;14.95;95.41;100528.66;4962635;28;45209;-95
2022/10/16 06:23:54;;;;;;;;;0.00;0.00;;;;;14.95;95.84;100530.47;4959537;28;45244;-92
2022/10/16 06:26:25;;;;;;;;;1.00;1.00;;;;;14.96;96.81;100535.72;4955140;28;47339;-92
2022/10/16 06:28:50;;;;;;;;;0.00;0.00;;;;;14.98;97.42;100533.88;4951063;28;45359;-89
2022/10/16 06:31:17;;;;;;;;;2.00;1.00;;;;;14.94;96.08;100516.31;4948013;28;45358;-87
2022/10/16 06:33:43;;;;;;;;;1.00;1.00;;;;;14.95;97.82;100520.69;4939810;28;45516;-88
2022/10/16 06:36:14;;;;;;;;;1.00;1.00;;;;;14.93;98.25;100511.91;4953398;28;47466;-89
2022/10/16 06:38:40;;;;;;;;;0.00;0.00;;;;;14.96;97.55;100519.78;4940332;28;45405;-89
2022/10/16 06:41:07;;;;;;;;;2.75;1.00;;;;;14.94;97.18;100518.97;4957632;28;45885;-89
2022/10/16 06:43:35;;;;;;;;;1.00;1.00;;;;;14.97;97.76;100529.50;4958563;28;45457;-93
2022/10/16 06:46:04;;;;;;;;;0.50;0.50;;;;;14.98;97.90;100531.22;4970832;28;48151;-94
2022/10/16 06:48:30;;;;;;;;;2.00;2.00;;;;;15.01;98.15;100536.41;4975071;28;45305;-95
2022/10/16 06:50:59;;;;;;;;;0.25;0.25;;;;;15.01;97.91;100533.75;4974481;28;45483;-94
2022/10/16 06:53:24;;;;;;;;;2.00;0.75;;;;;15.05;98.46;100546.03;4973461;28;45333;-90
2022/10/16 06:55:50;;;;;;;;;1.00;1.00;;;;;15.08;96.97;100550.38;4938917;28;46399;-92
2022/10/16 06:58:15;;;;;;;;;2.00;2.00;;;;;15.15;97.05;100556.31;4970935;28;45384;-91
2022/10/16 07:00:41;;;;;;;;;1.50;1.50;;;;;15.28;96.30;100570.88;4973727;28;45373;-93
2022/10/16 07:03:06;;;;;;;;;1.00;1.00;;;;;15.40;98.17;100565.06;4959636;28;45274;-91
2022/10/16 07:05:31;;;;;;;;;2.00;2.00;;;;;15.61;96.46;100562.47;4959197;28;48491;-91
2022/10/16 07:07:59;;;;;;;;;1.00;1.00;;;;;15.69;95.27;100573.66;4959176;28;45552;-92
2022/10/16 07:10:24;;;;;;;;;2.00;2.00;;;;;15.81;93.33;100565.19;4958291;28;45320;-89
2022/10/16 07:12:50;;;;;;;;;2.75;2.75;;;;;16.11;94.56;100582.59;4951601;28;45475;-96
2022/10/16 07:15:16;;;;;;;;;2.75;2.75;;;;;16.21;93.00;100589.25;4958753;28;47156;-93
2022/10/16 07:17:41;;;;;;;;;1.00;1.00;;;;;16.57;92.89;100585.06;4941863;28;46387;-93
2022/10/16 07:20:07;;;;;;;;;2.00;2.00;;;;;16.75;91.54;100589.56;4925509;28;45354;-96
2022/10/16 07:22:32;;;;;;;;;1.50;1.00;;;;;16.94;92.99;100586.09;4940668;28;45445;-89
2022/10/16 07:24:58;;;;;;;;;2.00;2.00;;;;;17.05;92.26;100578.44;4970660;28;47373;-90
2022/10/16 07:27:24;;;;;;;;;2.50;2.50;;;;;17.17;90.12;100587.66;4965520;28;45438;-91
2022/10/16 07:29:49;;;;;;;;;2.00;2.00;;;;;17.28;89.47;100587.16;4948489;28;45432;-89
2022/10/16 07:32:18;;;;;;;;;1.75;1.75;;;;;17.26;90.40;100583.69;4942337;28;45374;-91
2022/10/16 07:34:44;;;;;;;;;3.00;3.00;;;;;17.31;87.81;100598.56;4953147;28;46897;-92
2022/10/16 07:37:09;;;;;;;;;3.50;1.25;;;;;17.28;87.82;100596.06;4953584;28;45354;-89
2022/10/16 07:39:34;;;;;;;;;1.00;1.00;;;;;17.32;88.27;100600.28;4954458;28;45347;-91
2022/10/16 07:45:22;;;;;;;;;2.00;2.00;;;;;17.86;88.91;100616.38;4941911;28;45341;-94
2022/10/16 07:48:07;;;;;;;;;1.50;1.00;;;;;18.17;86.52;100632.72;4954434;28;45330;-90
2022/10/16 07:50:39;;;;;;;;;2.00;2.00;;;;;18.22;83.83;100620.88;4953964;28;45394;-90
2022/10/16 07:53:04;;;;;;;;;1.50;1.25;;;;;18.37;82.27;100629.91;4940563;28;45484;-90
2022/10/16 07:55:29;;;;;;;;;1.00;1.00;;;;;18.34;84.70;100616.69;4956275;28;46824;-92
2022/10/16 07:57:55;;;;;;;;;2.00;2.00;;;;;18.53;86.44;100605.88;4957200;28;45346;-89
2022/10/16 08:00:20;;;;;;;;;2.00;2.00;;;;;18.70;82.26;100613.00;4955184;28;45322;-88
2022/10/16 08:02:46;;;;;;;;;1.00;1.00;;;;;19.05;83.47;100622.81;4956722;28;45424;-89
2022/10/16 08:05:12;;;;;;;;;0.25;0.25;;;;;19.27;80.79;100633.22;4953012;28;46066;-89
2022/10/16 08:07:37;;;;;;;;;1.00;1.00;;;;;19.32;82.19;100636.50;4937880;28;45504;-91
2022/10/16 08:10:03;;;;;;;;;1.50;1.50;;;;;19.13;81.61;100644.66;4954619;28;45797;-90
2022/10/16 08:12:28;;;;;;;;;0.00;0.00;;;;;19.02;81.64;100649.75;4940356;28;45602;-90
2022/10/16 08:14:54;;;;;;;;;1.25;1.25;;;;;19.11;84.18;100649.25;4958051;28;47177;-91
2022/10/16 08:17:19;;;;;;;;;1.00;1.00;;;;;19.06;80.90;100656.69;4941868;28;45400;-91
2022/10/16 08:19:47;;;;;;;;;1.00;1.00;;;;;18.99;81.56;100643.63;4946930;28;45408;-91
2022/10/16 08:22:15;;;;;;;;;0.50;0.50;;;;;19.19;80.57;100641.66;4957711;28;45247;-91
2022/10/16 08:24:40;;;;;;;;;0.00;0.00;;;;;19.23;80.25;100637.00;4958766;28;47135;-90
2022/10/16 08:27:08;;;;;;;;;1.00;1.00;;;;;19.24;80.38;100642.28;4981594;28;45519;-90
2022/10/16 08:29:34;;;;;;;;;1.25;1.25;;;;;19.25;79.70;100635.97;4979736;28;45416;-90
2022/10/16 08:31:59;;;;;;;;;1.00;1.00;;;;;19.15;76.67;100635.59;4957831;28;45403;-91
2022/10/16 08:34:25;;;;;;;;;1.00;1.00;;;;;19.08;75.67;100633.34;4956103;28;48257;-90
2022/10/16 08:36:53;;;;;;;;;1.75;1.75;;;;;18.92;76.53;100634.19;4957504;28;45287;-91
2022/10/16 08:39:18;;;;;;;;;1.00;1.00;;;;;18.99;75.99;100650.78;4957007;28;45480;-91
2022/10/16 08:41:59;;;;;;;;;0.75;0.75;;;;;19.06;78.34;100654.84;4957975;28;45713;-93
2022/10/16 08:44:24;;;;;;;;;1.00;1.00;;;;;19.15;79.05;100650.81;4958420;28;47917;-92
2022/10/16 08:46:56;;;;;;;;;1.00;1.00;;;;;18.97;79.41;100653.53;4953314;28;45448;-92
2022/10/16 08:49:24;;;;;;;;;0.75;0.75;;;;;18.90;76.47;100646.78;4952552;28;45452;-92
2022/10/16 08:51:50;;;;;;;;;1.00;1.00;;;;;18.79;80.25;100659.84;4957816;28;45515;-92
2022/10/16 08:54:29;;;;;;;;;3.00;2.00;;;;;18.70;82.11;100661.19;4959501;28;47258;-93
2022/10/16 08:57:14;;;;;;;;;3.00;1.00;;;;;18.43;78.48;100644.75;4961071;28;45421;-92
2022/10/16 08:59:40;;;;;;;;;2.00;2.00;;;;;18.24;78.47;100643.03;4962202;28;45358;-93
2022/10/16 09:05:43;;;;;;;;;3.50;3.50;;;;;18.32;78.37;100660.50;4958723;28;45852;-92
2022/10/16 09:09:04;;;;;;;;;4.00;3.00;;;;;18.37;79.07;100663.81;4951181;28;45411;-91
2022/10/16 09:12:00;;;;;;;;;4.50;4.25;;;;;18.52;79.76;100657.66;4904738;28;45442;-91
2022/10/16 09:14:53;;;;;;;;;5.25;3.75;;;;;18.96;80.53;100678.59;4913959;28;45462;-92
2022/10/16 09:17:18;;;;;;;;;4.00;4.00;;;;;19.55;78.11;100664.69;4886598;29;48323;-92
2022/10/16 09:19:53;;;;;;;;;4.00;3.25;;;;;20.01;79.64;100645.13;4920170;28;45707;-91
2022/10/16 09:22:25;;;;;;;;;5.00;3.75;;;;;20.50;77.62;100646.72;4906404;28;45286;-92
2022/10/16 09:24:50;;;;;;;;;4.00;4.00;;;;;21.03;77.33;100645.28;4906761;28;45301;-92
2022/10/16 09:27:16;;;;;;;;;3.00;3.00;;;;;21.45;69.41;100650.69;4923800;28;46980;-92
2022/10/16 09:29:42;;;;;;;;;4.00;4.00;;;;;22.02;69.60;100652.38;4927310;28;45275;-93
2022/10/16 09:32:19;;;;;;;;;4.00;3.75;;;;;22.41;70.10;100655.19;4915726;28;45204;-92
2022/10/16 09:34:53;;;;;;;;;4.00;4.00;;;;;22.65;71.02;100668.81;4910622;28;45444;-93
2022/10/16 09:37:22;;;;;;;;;4.00;4.00;;;;;22.88;71.51;100654.59;4936861;28;47332;-93
2022/10/16 09:39:52;;;;;;;;;3.75;3.75;;;;;23.03;67.80;100654.47;4950546;28;42180;-93
2022/10/16 09:42:31;;;;;;;;;5.25;5.25;;;;;23.25;65.49;100672.72;4925674;28;45261;-92
2022/10/16 09:44:57;;;;;;;;;4.25;4.25;;;;;23.55;64.96;100666.03;4922492;28;45090;-90
2022/10/16 09:47:25;;;;;;;;;4.00;3.25;;;;;23.26;62.75;100674.44;4926325;28;45352;-90
2022/10/16 09:50:05;;;;;;;;;1.75;1.50;;;;;23.15;60.71;100672.47;4978742;28;14122;-90
2022/10/16 09:52:31;;;;;;;;;3.00;3.00;;;;;-145.22;100.00;56698.75;4973291;28;27965;-90
2022/10/16 09:55:03;;;;;;;;;2.00;2.00;;;;;-145.22;100.00;56698.75;4922321;28;1309583;-91
2022/10/16 09:57:30;;;;;;;;;1.75;1.75;;;;;-145.22;100.00;56698.75;4987211;28;11583;-89
2022/10/16 09:59:57;;;;;;;;;2.50;2.50;;;;;-145.22;100.00;56698.75;4995899;28;10326;-90
2022/10/16 10:02:40;;;;;;;;;3.00;3.00;;;;;-145.22;100.00;56698.75;4996015;28;10268;-90
2022/10/16 10:05:21;;;;;;;;;3.00;3.00;;;;;-145.22;100.00;56698.75;4993089;28;10634;-89
2022/10/16 10:08:00;;;;;;;;;4.25;3.75;;;;;-145.22;100.00;56698.75;5001525;28;10219;-94
2022/10/16 10:10:31;;;;;;;;;1.50;1.50;;;;;-145.22;100.00;56698.75;4998710;28;10289;-93
2022/10/16 10:12:57;;;;;;;;;4.00;3.00;;;;;-145.22;100.00;56698.75;4997841;28;10293;-92
2022/10/16 10:15:26;;;;;;;;;1.50;1.50;;;;;-145.22;100.00;56698.75;4998962;28;10539;-93
2022/10/16 10:17:57;;;;;;;;;4.50;4.50;;;;;-145.22;100.00;56698.75;4997935;28;11474;-93
2022/10/16 10:20:31;;;;;;;;;2.00;2.00;;;;;-145.22;100.00;56698.75;4998621;28;10547;-89
2022/10/16 10:22:57;;;;;;;;;1.00;1.00;;;;;-145.22;100.00;56698.75;4996456;28;10464;-89
2022/10/16 10:25:42;;;;;;;;;1.50;1.00;;;;;-145.22;100.00;56698.75;4991391;28;10332;-91
2022/10/16 10:28:36;;;;;;;;;2.33;0.67;;;;;-145.22;100.00;56698.75;2855696;28;55756594;-92
2022/10/16 10:31:13;;;;;;;;;2.00;2.00;;;;;-145.22;100.00;56698.75;302956;28;67527664;-91
2022/10/16 10:33:58;;;;;;;;;1.00;1.00;;;;;-145.22;100.00;56698.75;4812998;28;1110102;-91
2022/10/16 10:36:39;;;;;;;;;1.75;1.75;;;;;-145.22;100.00;56698.75;4928460;28;543268;-93
2022/10/16 10:39:15;;;;;;;;;1.00;1.00;;;;;21.58;100.00;56699.03;4972873;28;62284;-93
2022/10/16 10:42:05;;;;;;;;;2.00;2.00;;;;;-145.22;100.00;56698.75;4993143;28;11472;-91
2022/10/16 10:44:59;;;;;;;;;3.00;1.00;;;;;-145.22;100.00;56698.75;4985884;28;10668;-92
2022/10/16 10:47:44;;;;;;;;;1.00;1.00;;;;;-145.22;100.00;56698.75;4994714;28;10542;-92
2022/10/16 10:50:48;;;;;;;;;1.00;1.00;;;;;-145.22;100.00;56698.75;4991351;28;10431;-93
2022/10/16 10:53:26;;;;;;;;;1.75;1.00;;;;;-145.22;100.00;56698.75;4978189;28;10650;-93
2022/10/16 10:56:25;;;;;;;;;0.75;0.75;;;;;-145.22;100.00;56698.75;4984929;28;10298;-93
2022/10/16 10:59:26;;;;;;;;;0.00;0.00;;;;;-145.22;100.00;56698.75;4925857;29;10473;-96
2022/10/16 11:02:31;;;;;;;;;0.50;0.50;;;;;-145.22;100.00;56698.75;4899061;29;10405;-94
2022/10/16 11:05:03;;;;;;;;;0.00;0.00;;;;;-145.22;100.00;56698.75;4905763;29;10421;-94
2022/10/16 11:07:37;;;;;;;;;0.50;0.50;;;;;-145.22;100.00;56698.75;4912430;29;10352;-95
2022/10/16 11:10:22;;;;;;;;;0.00;0.00;;;;;-145.22;100.00;56698.75;4886158;29;10559;-95
2022/10/16 11:12:58;;;;;;;;;0.00;0.00;;;;;-145.22;100.00;56698.75;4905639;29;10748;-96
2022/10/16 11:15:43;;;;;;;;;0.00;0.00;;;;;-145.22;100.00;56698.75;4886851;29;10555;-96
2022/10/16 11:18:35;;;;;;;;;0.00;0.00;;;;;-145.22;100.00;56698.75;4886871;29;10345;-95
2022/10/16 11:21:08;;;;;;;;;1.50;0.00;;;;;-145.22;100.00;56698.75;4910358;29;10663;-95
2022/10/16 11:24:17;;;;;;;;;0.00;0.00;;;;;-145.22;100.00;56698.75;4904608;29;10662;-91
2022/10/16 11:26:49;;;;;;;;;2.00;0.25;;;;;-145.22;100.00;56698.75;4888044;29;10506;-94
2022/10/16 11:29:27;;;;;;;;;1.50;0.50;;;;;-145.22;100.00;56698.75;4903687;29;10483;-95
2022/10/16 11:32:07;;;;;;;;;1.00;1.00;;;;;-145.22;100.00;56698.75;4918288;29;10414;-93
2022/10/16 11:34:41;;;;;;;;;1.00;0.00;;;;;-145.22;100.00;56698.75;4906491;29;10406;-94
2022/10/16 11:37:19;;;;;;;;;0.00;0.00;;;;;-145.22;100.00;56698.75;4962511;28;10503;-93
2022/10/16 11:39:46;;;;;;;;;0.00;0.00;;;;;-145.22;100.00;56698.75;5001941;28;10487;-93
2022/10/16 11:42:21;;;;;;;;;0.00;0.00;;;;;-145.22;100.00;56698.75;4992097;28;10364;-93
2022/10/16 11:44:53;;;;;;;;;0.00;0.00;;;;;-145.22;100.00;56698.75;4974995;28;10444;-94
2022/10/16 11:47:32;;;;;;;;;1.00;0.00;;;;;-145.22;100.00;56698.75;4978792;28;10680;-95
2022/10/16 11:50:04;;;;;;;;;1.25;0.25;;;;;-145.22;100.00;56698.75;4997010;28;10678;-94
2022/10/16 11:52:46;;;;;;;;;0.00;0.00;;;;;-145.22;100.00;56698.75;4981769;28;10352;-95
2022/10/16 11:55:22;;;;;;;;;0.00;0.00;;;;;-145.22;100.00;56698.75;5000419;28;10417;-91